createdAt,value
2023-03-30T00:02:47.453Z,2.20
2023-03-30T00:06:51.089Z,2.20
2023-03-30T00:10:55.935Z,2.30
2023-03-30T00:15:00.675Z,2.40
2023-03-30T00:19:04.079Z,2.50
2023-03-30T00:23:07.382Z,2.50
2023-03-30T00:27:10.682Z,2.50
2023-03-30T00:31:15.654Z,2.60
2023-03-30T00:35:19.702Z,2.70
2023-03-30T00:39:23.420Z,2.70
2023-03-30T00:43:27.809Z,2.70
2023-03-30T00:47:33.983Z,2.80
2023-03-30T00:51:40.528Z,2.90
2023-03-30T00:55:44.974Z,2.80
2023-03-30T00:59:49.812Z,2.90
2023-03-30T01:03:55.207Z,3.00
2023-03-30T01:08:00.377Z,3.10
2023-03-30T01:12:05.495Z,3.10
2023-03-30T01:16:20.822Z,3.00
2023-03-30T01:21:01.635Z,3.10
2023-03-30T01:25:38.662Z,3.20
2023-03-30T01:29:50.375Z,3.30
2023-03-30T01:34:20.278Z,3.30
2023-03-30T01:39:10.626Z,3.30
2023-03-30T01:43:21.262Z,3.30
2023-03-30T01:47:29.303Z,3.10
2023-03-30T01:51:36.909Z,3.10
2023-03-30T01:55:45.568Z,3.10
2023-03-30T01:59:56.666Z,3.10
2023-03-30T02:04:01.608Z,3.10
2023-03-30T02:08:09.540Z,3.00
2023-03-30T02:12:14.486Z,3.00
2023-03-30T02:16:25.604Z,3.00
2023-03-30T02:20:30.089Z,3.10
2023-03-30T02:24:35.359Z,3.00
2023-03-30T02:28:38.723Z,3.10
2023-03-30T02:32:46.612Z,3.10
2023-03-30T02:37:19.421Z,3.10
2023-03-30T02:41:38.416Z,3.10
2023-03-30T02:45:51.193Z,3.10
2023-03-30T02:50:01.943Z,3.20
2023-03-30T02:54:15.942Z,3.20
2023-03-30T02:58:25.351Z,3.20
2023-03-30T03:02:34.101Z,3.30
2023-03-30T03:06:40.028Z,3.30
2023-03-30T03:10:43.380Z,3.30
2023-03-30T03:14:46.618Z,3.20
2023-03-30T03:18:50.481Z,3.30
2023-03-30T03:22:55.059Z,3.30
2023-03-30T03:26:58.773Z,3.30
2023-03-30T03:31:02.777Z,3.20
2023-03-30T03:35:07.423Z,3.10
2023-03-30T03:39:12.021Z,2.80
2023-03-30T03:43:15.268Z,2.80
2023-03-30T03:47:18.720Z,2.70
2023-03-30T03:51:22.004Z,2.60
2023-03-30T03:55:28.646Z,2.50
2023-03-30T03:59:32.019Z,2.30
2023-03-30T04:03:35.675Z,2.30
2023-03-30T04:07:39.496Z,2.30
2023-03-30T04:11:44.161Z,2.30
2023-03-30T04:15:47.467Z,2.20
2023-03-30T04:19:53.868Z,2.30
2023-03-30T04:23:57.394Z,2.40
2023-03-30T04:28:05.286Z,2.40
2023-03-30T04:32:08.811Z,2.50
2023-03-30T04:36:17.712Z,2.50
2023-03-30T04:40:21.105Z,2.60
2023-03-30T04:44:25.833Z,2.60
2023-03-30T04:48:29.125Z,2.50
2023-03-30T04:52:32.389Z,2.40
2023-03-30T04:56:35.800Z,2.60
2023-03-30T05:00:42.848Z,2.80
2023-03-30T05:04:46.652Z,3.00
2023-03-30T05:08:49.926Z,3.20
2023-03-30T05:12:55.699Z,3.30
2023-03-30T05:17:00.956Z,3.40
2023-03-30T05:21:04.638Z,3.50
2023-03-30T05:25:09.555Z,3.70
2023-03-30T05:29:13.019Z,3.80
2023-03-30T05:33:17.825Z,4.00
2023-03-30T05:37:22.002Z,4.10
2023-03-30T05:41:27.667Z,4.30
2023-03-30T05:45:31.441Z,4.30
2023-03-30T05:49:36.669Z,4.40
2023-03-30T05:53:40.077Z,4.50
2023-03-30T05:57:43.509Z,4.70
2023-03-30T06:01:47.630Z,5.00
2023-03-30T06:05:54.643Z,5.00
2023-03-30T06:09:59.720Z,5.10
2023-03-30T06:14:03.159Z,5.40
2023-03-30T06:18:07.284Z,5.60
2023-03-30T06:22:11.913Z,5.70
2023-03-30T06:26:16.564Z,5.90
2023-03-30T06:30:20.395Z,6.00
2023-03-30T06:34:24.184Z,6.10
2023-03-30T06:38:29.228Z,6.20
2023-03-30T06:42:33.670Z,6.20
2023-03-30T06:46:37.558Z,6.30
2023-03-30T06:50:41.546Z,6.30
2023-03-30T06:54:47.293Z,6.60
2023-03-30T06:58:51.932Z,6.50
2023-03-30T07:02:56.098Z,6.70
2023-03-30T07:06:59.760Z,6.90
2023-03-30T07:11:05.918Z,7.10
2023-03-30T07:15:12.397Z,7.30
2023-03-30T07:19:16.319Z,7.40
2023-03-30T07:23:19.879Z,7.70
2023-03-30T07:27:25.571Z,7.90
2023-03-30T07:31:30.120Z,8.20
2023-03-30T07:35:33.460Z,8.40
2023-03-30T07:39:36.754Z,8.40
2023-03-30T07:43:41.729Z,8.40
2023-03-30T07:47:45.089Z,8.60
2023-03-30T07:51:48.571Z,10.40
2023-03-30T07:55:53.350Z,12.50
2023-03-30T07:59:58.564Z,13.40
2023-03-30T08:04:02.585Z,13.00
2023-03-30T08:08:06.178Z,13.00
2023-03-30T08:12:10.053Z,12.90
2023-03-30T08:16:15.781Z,13.00
2023-03-30T08:20:19.727Z,13.10
2023-03-30T08:24:23.348Z,13.00
2023-03-30T08:28:27.600Z,14.20
2023-03-30T08:32:32.433Z,16.50
2023-03-30T08:36:35.859Z,17.40
2023-03-30T08:40:41.561Z,16.80
2023-03-30T08:44:47.573Z,16.90
2023-03-30T08:48:53.705Z,16.40
2023-03-30T08:52:57.046Z,16.50
2023-03-30T08:57:07.773Z,17.00
2023-03-30T09:01:20.008Z,17.70
2023-03-30T09:05:32.832Z,17.70
2023-03-30T09:09:42.364Z,17.60
2023-03-30T09:13:47.992Z,18.20
2023-03-30T09:17:56.497Z,18.90
2023-03-30T09:22:03.820Z,19.40
2023-03-30T09:26:19.700Z,19.10
2023-03-30T09:30:26.526Z,17.90
2023-03-30T09:34:39.247Z,17.20
2023-03-30T09:38:45.344Z,17.00
2023-03-30T09:42:58.673Z,16.80
2023-03-30T09:47:03.397Z,16.70
2023-03-30T09:51:16.506Z,16.20
2023-03-30T09:55:28.511Z,16.40
2023-03-30T09:59:33.017Z,16.60
2023-03-30T10:03:38.380Z,16.20
2023-03-30T10:07:43.332Z,15.80
2023-03-30T10:11:51.127Z,15.60
2023-03-30T10:15:56.035Z,15.70
2023-03-30T10:20:27.492Z,15.80
2023-03-30T10:24:33.284Z,15.90
2023-03-30T10:28:38.264Z,16.00
2023-03-30T10:32:46.923Z,16.20
2023-03-30T10:36:54.817Z,15.80
2023-03-30T10:41:03.634Z,15.40
2023-03-30T10:45:16.927Z,15.00
2023-03-30T10:49:27.204Z,15.10
2023-03-30T10:53:42.707Z,15.20
2023-03-30T10:57:54.651Z,15.20
2023-03-30T11:02:20.814Z,15.20
2023-03-30T11:06:29.156Z,15.40
2023-03-30T11:10:37.276Z,15.30
2023-03-30T11:14:49.927Z,15.20
2023-03-30T11:18:58.319Z,15.20
2023-03-30T11:23:13.998Z,14.90
2023-03-30T11:27:22.132Z,14.60
2023-03-30T11:31:45.689Z,14.20
2023-03-30T11:35:54.763Z,14.00
2023-03-30T11:40:08.709Z,14.00
2023-03-30T11:44:13.739Z,14.00
2023-03-30T11:49:05.794Z,14.00
2023-03-30T11:53:25.787Z,13.50
2023-03-30T11:57:37.052Z,13.30
2023-03-30T12:01:57.403Z,13.30
2023-03-30T12:06:11.189Z,13.50
2023-03-30T12:10:21.986Z,13.80
2023-03-30T12:14:36.062Z,14.40
2023-03-30T12:18:44.057Z,14.40
2023-03-30T12:22:51.852Z,14.80
2023-03-30T12:27:05.498Z,15.20
2023-03-30T12:31:09.732Z,15.40
2023-03-30T12:35:49.408Z,15.20
2023-03-30T12:39:58.258Z,15.00
2023-03-30T12:44:21.802Z,14.70
2023-03-30T12:48:38.060Z,14.70
2023-03-30T12:52:53.592Z,14.70
2023-03-30T12:57:11.862Z,14.40
2023-03-30T13:01:33.239Z,14.20
2023-03-30T13:05:41.124Z,14.20
2023-03-30T13:09:57.015Z,14.00
2023-03-30T13:14:03.598Z,14.10
2023-03-30T13:18:37.221Z,14.10
2023-03-30T13:22:40.735Z,14.40
2023-03-30T13:26:46.133Z,15.20
2023-03-30T13:30:50.205Z,15.80
2023-03-30T13:35:07.403Z,16.80
2023-03-30T13:39:24.069Z,17.60
2023-03-30T13:43:42.403Z,18.20
2023-03-30T13:47:59.316Z,18.30
2023-03-30T13:52:07.993Z,17.90
2023-03-30T13:56:12.760Z,17.90
2023-03-30T14:00:33.446Z,18.50
2023-03-30T14:04:39.171Z,19.40
2023-03-30T14:08:46.419Z,20.10
2023-03-30T14:12:53.293Z,19.70
2023-03-30T14:16:57.343Z,19.80
2023-03-30T14:21:04.121Z,19.60
2023-03-30T14:25:24.434Z,19.00
2023-03-30T14:29:31.650Z,18.00
2023-03-30T14:33:40.282Z,17.60
2023-03-30T14:37:51.629Z,17.80
2023-03-30T14:41:57.747Z,18.30
2023-03-30T14:46:06.142Z,18.10
2023-03-30T14:50:10.805Z,18.00
2023-03-30T14:54:18.015Z,17.80
2023-03-30T14:58:22.827Z,17.50
2023-03-30T15:02:30.008Z,16.90
2023-03-30T15:06:33.810Z,16.40
2023-03-30T15:10:45.422Z,16.20
2023-03-30T15:14:51.178Z,16.00
2023-03-30T15:18:57.288Z,16.00
2023-03-30T15:23:02.339Z,15.90
2023-03-30T15:27:11.766Z,15.70
2023-03-30T15:31:17.431Z,15.60
2023-03-30T15:35:23.885Z,15.50
2023-03-30T15:39:34.268Z,15.40
2023-03-30T15:43:38.545Z,15.20
2023-03-30T15:47:43.663Z,14.90
2023-03-30T15:51:48.871Z,14.80
2023-03-30T15:55:53.988Z,14.60
2023-03-30T16:00:01.396Z,14.20
2023-03-30T16:04:07.239Z,14.10
2023-03-30T16:08:10.617Z,13.80
2023-03-30T16:12:16.482Z,13.60
2023-03-30T16:16:20.034Z,13.50
2023-03-30T16:20:26.730Z,13.40
2023-03-30T16:24:30.469Z,13.30
2023-03-30T16:28:33.972Z,13.10
2023-03-30T16:32:37.696Z,13.00
2023-03-30T16:36:42.505Z,12.80
2023-03-30T16:40:50.195Z,12.70
2023-03-30T16:44:53.541Z,12.60
2023-03-30T16:48:57.765Z,12.40
2023-03-30T16:53:03.706Z,12.30
2023-03-30T16:57:09.909Z,12.20
2023-03-30T17:01:18.509Z,12.20
2023-03-30T17:05:22.541Z,11.90
2023-03-30T17:09:27.666Z,11.90
2023-03-30T17:13:32.599Z,11.90
2023-03-30T17:17:38.942Z,11.80
2023-03-30T17:21:44.123Z,11.80
2023-03-30T17:26:03.980Z,11.80
2023-03-30T17:30:20.631Z,11.80
2023-03-30T17:34:25.382Z,11.80
2023-03-30T17:38:30.182Z,12.20
2023-03-30T17:42:35.618Z,12.10
2023-03-30T17:46:43.560Z,11.80
2023-03-30T17:50:51.368Z,11.60
2023-03-30T17:54:55.512Z,11.40
2023-03-30T17:59:03.085Z,11.40
2023-03-30T18:03:07.480Z,11.10
2023-03-30T18:07:15.024Z,11.00
2023-03-30T18:11:20.472Z,11.00
2023-03-30T18:15:31.319Z,10.90
2023-03-30T18:20:02.784Z,11.10
2023-03-30T18:24:15.087Z,11.20
2023-03-30T18:28:24.099Z,11.30
2023-03-30T18:32:47.167Z,11.20
2023-03-30T18:36:52.210Z,11.10
2023-03-30T18:40:58.754Z,11.00
2023-03-30T18:45:05.070Z,10.90
2023-03-30T18:49:17.584Z,10.90
2023-03-30T18:58:10.253Z,10.70
2023-03-30T19:02:15.224Z,10.60
2023-03-30T19:06:27.989Z,10.60
2023-03-30T19:10:52.655Z,10.60
2023-03-30T19:15:17.445Z,10.70
2023-03-30T19:19:25.201Z,10.60
2023-03-30T19:23:33.973Z,10.50
2023-03-30T19:27:39.561Z,10.40
2023-03-30T19:31:44.912Z,10.30
2023-03-30T19:35:51.798Z,10.30
2023-03-30T19:40:02.411Z,10.20
2023-03-30T19:44:06.879Z,10.20
2023-03-30T19:48:12.064Z,10.00
2023-03-30T19:52:16.825Z,10.00
2023-03-30T19:56:23.924Z,10.00
2023-03-30T20:00:28.780Z,9.90
2023-03-30T20:04:33.390Z,9.90
2023-03-30T20:08:38.025Z,9.80
2023-03-30T20:12:43.255Z,9.70
2023-03-30T20:16:48.753Z,9.60
2023-03-30T20:20:52.359Z,9.60
2023-03-30T20:24:58.589Z,9.60
2023-03-30T20:29:04.861Z,9.60
2023-03-30T20:33:09.721Z,9.50
2023-03-30T20:37:13.671Z,9.40
2023-03-30T20:41:21.617Z,9.30
2023-03-30T20:45:28.600Z,9.30
2023-03-30T20:49:33.597Z,9.30
2023-03-30T20:53:38.646Z,9.20
2023-03-30T20:57:44.301Z,9.10
2023-03-30T21:01:51.966Z,9.10
2023-03-30T21:06:01.494Z,9.00
2023-03-30T21:10:05.927Z,8.90
2023-03-30T21:14:12.388Z,8.90
2023-03-30T21:18:17.221Z,8.70
2023-03-30T21:22:21.465Z,8.60
2023-03-30T21:26:24.761Z,8.40
2023-03-30T21:30:29.109Z,8.40
2023-03-30T21:34:33.754Z,8.30
2023-03-30T21:38:37.630Z,8.30
2023-03-30T21:42:41.183Z,8.10
2023-03-30T21:46:44.589Z,8.10
2023-03-30T21:50:49.369Z,7.90
2023-03-30T21:54:52.774Z,7.80
2023-03-30T21:58:56.049Z,7.70
2023-03-30T22:02:59.510Z,7.50
2023-03-30T22:07:04.953Z,7.40
2023-03-30T22:11:10.415Z,7.30
2023-03-30T22:15:14.112Z,7.30
2023-03-30T22:19:22.978Z,7.20
2023-03-30T22:23:27.771Z,7.20
2023-03-30T22:27:31.220Z,7.10
2023-03-30T22:31:35.277Z,7.20
2023-03-30T22:35:39.719Z,7.10
2023-03-30T22:39:44.860Z,7.20
2023-03-30T22:43:48.131Z,7.20
2023-03-30T22:47:52.720Z,7.20
2023-03-30T22:51:56.037Z,7.10
2023-03-30T22:56:00.780Z,7.20
2023-03-30T23:00:09.931Z,7.10
2023-03-30T23:04:13.607Z,7.20
2023-03-30T23:08:17.061Z,7.10
2023-03-30T23:12:21.678Z,7.00
2023-03-30T23:16:27.704Z,7.10
2023-03-30T23:20:30.986Z,7.00
2023-03-30T23:24:34.384Z,7.10
2023-03-30T23:28:40.288Z,7.00
2023-03-30T23:32:43.774Z,6.80
2023-03-30T23:36:49.710Z,6.60
2023-03-30T23:40:57.782Z,6.40
2023-03-30T23:45:02.501Z,6.30
2023-03-30T23:49:06.319Z,6.20
2023-03-30T23:53:09.500Z,6.10
2023-03-30T23:57:13.010Z,6.10
